Time;durP1;ratioP1;P1;durP2;ratioP2;P2;SDS_P1;SDS_P2;PMS_P1;PMS_P2;Temp;Humidity;BMP_temperature;BMP_pressure;BME280_temperature;BME280_humidity;BME280_pressure;Samples;Min_cycle;Max_cycle;Signal;HPM_P1;HPM_P2
2022/08/12 00:44:40;;;;;;;4.75;3.47;;;17.60;94.10;;;;;;5109474;28;20239;-51
2022/08/12 00:47:12;;;;;;;4.60;3.72;;;17.60;94.40;;;;;;5110404;28;20231;-51
2022/08/12 00:49:54;;;;;;;4.13;3.45;;;17.70;94.20;;;;;;5109993;28;20310;-52
2022/08/12 00:52:23;;;;;;;5.70;3.50;;;17.70;94.30;;;;;;5110444;28;20657;-51
2022/08/12 00:54:55;;;;;;;6.28;3.60;;;17.60;94.20;;;;;;5104505;28;20255;-52
2022/08/12 00:57:27;;;;;;;4.57;3.67;;;17.60;94.40;;;;;;5104891;28;20691;-51
2022/08/12 00:59:57;;;;;;;5.85;4.10;;;17.50;94.30;;;;;;5110229;28;20600;-51
2022/08/12 01:02:28;;;;;;;7.47;4.00;;;17.50;94.50;;;;;;5110315;28;20215;-51
2022/08/12 01:13:22;;;;;;;5.90;4.50;;;17.40;94.80;;;;;;5095631;28;20257;-51
2022/08/12 01:15:53;;;;;;;4.93;3.83;;;17.40;94.80;;;;;;5109987;28;20248;-51
2022/08/12 01:18:25;;;;;;;5.80;3.50;;;17.40;94.90;;;;;;5107699;28;20207;-51
2022/08/12 01:21:03;;;;;;;4.40;3.63;;;17.30;95.00;;;;;;5099612;28;20280;-51
2022/08/12 01:23:51;;;;;;;5.40;3.75;;;17.30;95.00;;;;;;5072946;28;20197;-51
2022/08/12 01:26:23;;;;;;;6.72;3.95;;;17.30;95.20;;;;;;5073209;28;20200;-52
2022/08/12 01:28:55;;;;;;;6.60;3.55;;;17.30;95.10;;;;;;5082229;28;20722;-51
2022/08/12 01:31:26;;;;;;;9.38;3.65;;;17.30;95.20;;;;;;5076434;28;20297;-52
2022/08/12 01:34:02;;;;;;;6.10;3.70;;;17.30;95.20;;;;;;5088286;28;20269;-51
2022/08/12 01:36:37;;;;;;;5.07;3.50;;;17.30;95.20;;;;;;5088792;28;20208;-52
2022/08/12 01:39:05;;;;;;;4.32;3.63;;;17.30;95.30;;;;;;5084156;28;20254;-51
2022/08/12 01:41:41;;;;;;;5.22;3.45;;;17.30;95.20;;;;;;5081736;28;20624;-51
2022/08/12 01:44:19;;;;;;;6.10;3.65;;;17.30;95.20;;;;;;5089744;28;20212;-51
2022/08/12 01:47:03;;;;;;;7.85;4.00;;;17.30;95.20;;;;;;5087681;28;20700;-51
2022/08/12 01:49:53;;;;;;;4.30;3.63;;;17.30;95.10;;;;;;5089536;28;20274;-51
2022/08/12 01:52:33;;;;;;;7.95;3.58;;;17.30;95.10;;;;;;5092892;28;20212;-51
2022/08/12 01:55:04;;;;;;;5.35;3.20;;;17.30;95.20;;;;;;5092557;28;20200;-52
2022/08/12 01:57:43;;;;;;;4.70;3.58;;;17.30;95.20;;;;;;5078224;28;20208;-52
2022/08/12 02:00:38;;;;;;;4.03;3.63;;;17.30;95.30;;;;;;5093110;28;20610;-50
2022/08/12 02:12:42;;;;;;;5.68;3.90;;;17.30;95.40;;;;;;5114892;28;20203;-50
2022/08/12 02:15:22;;;;;;;4.88;3.63;;;17.30;95.30;;;;;;5127611;28;20207;-50
2022/08/12 02:18:03;;;;;;;3.95;3.20;;;17.30;95.30;;;;;;5127556;28;20256;-51
2022/08/12 02:20:40;;;;;;;9.43;4.07;;;17.20;95.20;;;;;;5117445;28;20640;-51
2022/08/12 02:23:24;;;;;;;5.50;3.83;;;17.20;95.30;;;;;;5126964;28;20214;-51
2022/08/12 02:25:58;;;;;;;3.45;3.15;;;17.20;95.50;;;;;;5127241;28;20636;-50
2022/08/12 02:28:27;;;;;;;5.97;3.58;;;17.20;95.50;;;;;;5122972;28;20258;-51
2022/08/12 02:31:01;;;;;;;5.43;3.70;;;17.20;95.60;;;;;;5116339;27;20304;-50
2022/08/12 02:33:30;;;;;;;4.72;3.75;;;17.10;95.60;;;;;;5119029;28;20259;-50
2022/08/12 02:36:00;;;;;;;5.15;3.70;;;17.10;95.60;;;;;;5127048;28;20207;-50
2022/08/12 02:38:30;;;;;;;7.78;3.47;;;17.10;95.70;;;;;;5126648;27;20717;-51
2022/08/12 02:41:03;;;;;;;7.45;3.75;;;17.10;95.60;;;;;;5127415;27;20250;-51
2022/08/12 02:43:36;;;;;;;4.25;3.42;;;17.10;95.50;;;;;;5126791;27;20210;-50
2022/08/12 02:46:07;;;;;;;6.60;3.83;;;17.10;95.50;;;;;;5127205;27;20199;-50
2022/08/12 02:48:49;;;;;;;4.68;3.40;;;17.10;95.60;;;;;;5116564;27;20211;-51
2022/08/12 02:51:23;;;;;;;5.15;3.20;;;17.10;95.60;;;;;;5127395;27;20272;-50
2022/08/12 02:53:51;;;;;;;4.72;3.60;;;17.10;95.60;;;;;;5126505;28;20259;-51
2022/08/12 02:56:39;;;;;;;4.65;3.70;;;17.10;95.60;;;;;;5118575;28;20211;-51
2022/08/12 02:59:09;;;;;;;9.13;3.83;;;17.10;95.60;;;;;;5126803;27;20283;-50
2022/08/12 03:01:40;;;;;;;5.57;4.15;;;17.10;95.70;;;;;;5126992;27;20223;-50
2022/08/12 03:04:23;;;;;;;8.52;3.60;;;17.00;95.60;;;;;;5125414;27;20302;-50
2022/08/12 03:07:01;;;;;;;6.20;4.03;;;17.00;95.70;;;;;;5126813;28;20683;-50
2022/08/12 03:09:36;;;;;;;5.07;3.60;;;17.10;95.80;;;;;;5125870;28;20636;-51
2022/08/12 03:12:26;;;;;;;7.65;3.80;;;17.00;95.70;;;;;;5126341;28;20664;-50
2022/08/12 03:15:05;;;;;;;4.03;3.60;;;17.00;95.70;;;;;;5126399;28;20675;-51
2022/08/12 03:17:38;;;;;;;4.03;3.60;;;17.00;95.70;;;;;;5125397;28;20206;-50
2022/08/12 03:20:07;;;;;;;5.50;3.70;;;17.00;95.80;;;;;;5109819;28;20637;-50
2022/08/12 03:22:39;;;;;;;4.38;3.50;;;17.00;95.80;;;;;;5111589;28;20207;-50
2022/08/12 03:25:16;;;;;;;5.70;3.95;;;16.90;95.90;;;;;;5112355;28;20290;-50
2022/08/12 03:27:50;;;;;;;5.30;4.03;;;16.90;96.00;;;;;;5110870;28;20685;-51
2022/08/12 03:30:19;;;;;;;7.00;3.80;;;16.90;96.30;;;;;;5106822;28;20783;-50
2022/08/12 03:32:50;;;;;;;4.68;3.50;;;16.90;96.30;;;;;;5100441;28;20201;-50
2022/08/12 03:35:25;;;;;;;4.97;3.45;;;16.80;96.30;;;;;;5111805;28;20200;-50
2022/08/12 03:38:14;;;;;;;6.93;3.40;;;16.80;96.40;;;;;;5112553;28;20204;-50
2022/08/12 04:00:35;;;;;;;5.63;4.07;;;16.60;97.20;;;;;;5111817;28;20231;-50
2022/08/12 04:03:50;;;;;;;6.35;4.00;;;16.60;97.40;;;;;;5111972;28;20196;-50
2022/08/12 04:05:51;;;;;;;4.78;3.90;;;16.50;97.90;;;;;;5111632;28;20256;-50
2022/08/12 04:08:26;;;;;;;7.40;3.95;;;16.40;98.20;;;;;;5111295;28;20255;-50
2022/08/12 04:13:40;;;;;;;4.78;3.90;;;16.30;99.00;;;;;;5111700;28;20219;-50
2022/08/12 04:16:12;;;;;;;6.38;4.13;;;16.40;98.90;;;;;;5111077;28;20204;-50
2022/08/12 04:18:41;;;;;;;4.50;4.03;;;16.30;98.80;;;;;;5106685;28;20204;-50
2022/08/12 04:21:09;;;;;;;5.57;4.13;;;16.30;98.30;;;;;;5109752;28;20312;-50
2022/08/12 04:23:41;;;;;;;6.90;5.50;;;16.40;98.20;;;;;;5111139;28;20261;-50
2022/08/12 04:26:15;;;;;;;4.80;3.80;;;16.40;98.30;;;;;;5101189;28;20203;-50
2022/08/12 04:28:43;;;;;;;5.45;3.75;;;16.40;98.50;;;;;;5109573;28;20715;-51
2022/08/12 04:31:14;;;;;;;6.85;4.07;;;16.40;98.60;;;;;;5097147;28;20282;-50
2022/08/12 04:33:43;;;;;;;7.07;4.20;;;16.40;98.70;;;;;;5104334;28;20249;-51
2022/08/12 04:36:11;;;;;;;8.95;4.32;;;16.50;98.70;;;;;;5111670;28;20284;-51
2022/08/12 04:38:39;;;;;;;5.90;3.83;;;16.50;98.60;;;;;;5110434;28;20665;-50
2022/08/12 04:41:09;;;;;;;7.60;3.88;;;16.50;98.50;;;;;;5111403;28;20232;-50
2022/08/12 04:43:38;;;;;;;9.88;4.10;;;16.70;98.70;;;;;;5111018;28;20215;-49
2022/08/12 04:46:27;;;;;;;4.40;3.80;;;17.00;98.40;;;;;;5111218;28;20307;-50
2022/08/12 04:49:02;;;;;;;6.55;3.80;;;17.80;97.90;;;;;;5110903;28;20210;-50
2022/08/12 04:51:31;;;;;;;8.38;3.50;;;18.40;96.90;;;;;;5110401;28;20609;-50
2022/08/12 04:54:00;;;;;;;4.40;3.55;;;18.90;96.10;;;;;;5110740;28;20211;-51
2022/08/12 04:56:28;;;;;;;4.72;3.28;;;19.40;95.30;;;;;;5101929;28;20211;-51
2022/08/12 04:59:03;;;;;;;5.10;3.70;;;19.80;94.60;;;;;;5111218;28;20187;-51
2022/08/12 05:01:32;;;;;;;4.43;3.78;;;20.10;94.10;;;;;;5110522;28;20966;-51
2022/08/12 05:04:01;;;;;;;5.72;3.60;;;20.40;93.50;;;;;;5110221;28;20721;-51
2022/08/12 05:06:29;;;;;;;7.22;3.80;;;20.70;93.30;;;;;;5110771;28;20207;-51
2022/08/12 05:08:59;;;;;;;4.90;3.30;;;21.00;93.00;;;;;;5110245;28;20288;-50
2022/08/12 05:11:28;;;;;;;4.78;3.10;;;21.20;92.40;;;;;;5110563;28;20250;-51
2022/08/12 05:13:59;;;;;;;5.15;3.67;;;21.60;92.20;;;;;;5110494;28;20264;-51
2022/08/12 05:16:29;;;;;;;4.93;3.28;;;21.90;91.70;;;;;;5114711;28;20219;-50
2022/08/12 05:19:04;;;;;;;4.28;3.28;;;22.00;91.60;;;;;;5103670;28;20287;-51
2022/08/12 05:21:40;;;;;;;8.65;3.17;;;22.20;91.40;;;;;;5110486;28;20223;-51
2022/08/12 05:24:08;;;;;;;3.58;3.28;;;22.50;91.00;;;;;;5109930;28;20235;-51
2022/08/12 05:26:36;;;;;;;5.47;3.47;;;22.70;90.40;;;;;;5100538;28;20211;-51
2022/08/12 05:29:05;;;;;;;4.40;3.20;;;23.00;90.20;;;;;;5108445;28;20715;-51
2022/08/12 05:31:55;;;;;;;6.32;3.10;;;23.20;90.00;;;;;;5095847;28;20262;-53
2022/08/12 05:34:28;;;;;;;4.80;3.08;;;23.40;89.50;;;;;;5090158;28;20208;-50
2022/08/12 05:36:56;;;;;;;5.88;3.17;;;23.80;89.10;;;;;;5079586;28;20200;-51
2022/08/12 05:39:24;;;;;;;4.35;2.80;;;23.80;89.00;;;;;;5089547;28;20204;-52
2022/08/12 05:41:52;;;;;;;6.97;3.22;;;23.50;87.60;;;;;;5074068;28;20228;-51
2022/08/12 05:44:20;;;;;;;3.78;3.15;;;22.80;89.00;;;;;;5078804;28;20220;-51
2022/08/12 05:46:48;;;;;;;5.28;3.28;;;22.30;90.40;;;;;;5087696;28;20212;-51
2022/08/12 05:49:17;;;;;;;5.95;3.40;;;21.90;90.70;;;;;;5075508;28;20225;-51
2022/08/12 05:51:46;;;;;;;5.75;3.15;;;21.70;91.10;;;;;;5086283;28;20232;-51
2022/08/12 05:54:15;;;;;;;4.70;3.30;;;21.50;91.30;;;;;;5088237;28;20200;-50
2022/08/12 05:56:44;;;;;;;5.68;3.45;;;21.40;91.60;;;;;;5088805;28;20208;-51
2022/08/12 05:59:12;;;;;;;5.63;3.25;;;21.20;92.50;;;;;;5088838;28;20219;-51
2022/08/12 06:01:42;;;;;;;4.13;3.15;;;21.10;92.30;;;;;;5088567;28;20227;-51
2022/08/12 06:04:32;;;;;;;4.63;3.30;;;21.30;92.40;;;;;;5088808;28;20232;-51
2022/08/12 06:07:01;;;;;;;4.32;3.05;;;21.40;92.50;;;;;;5089653;28;20273;-51
2022/08/12 06:09:49;;;;;;;3.50;3.13;;;21.30;92.20;;;;;;5088758;28;20224;-51
2022/08/12 06:12:22;;;;;;;6.85;3.70;;;21.20;92.50;;;;;;5089592;28;20669;-51
2022/08/12 06:14:50;;;;;;;5.43;3.10;;;21.70;93.00;;;;;;5088868;28;20204;-51
2022/08/12 06:17:18;;;;;;;5.15;3.60;;;22.30;92.80;;;;;;5089302;28;20212;-51
2022/08/12 06:19:47;;;;;;;4.53;3.40;;;22.40;92.80;;;;;;5088812;28;20249;-51
2022/08/12 06:22:38;;;;;;;5.63;3.08;;;22.40;93.10;;;;;;5088984;28;20231;-51
2022/08/12 06:25:07;;;;;;;4.30;3.00;;;22.90;93.20;;;;;;5088447;28;20213;-51
2022/08/12 06:27:47;;;;;;;8.10;3.30;;;23.60;93.10;;;;;;5088768;28;20680;-51
2022/08/12 06:30:35;;;;;;;4.35;2.97;;;24.20;92.20;;;;;;5076907;28;20307;-51
2022/08/12 06:33:07;;;;;;;4.43;3.10;;;24.90;91.50;;;;;;5098172;28;20250;-51
2022/08/12 06:35:52;;;;;;;4.40;2.65;;;25.20;89.90;;;;;;5109756;28;20234;-51
2022/08/12 06:38:29;;;;;;;3.17;2.88;;;25.60;88.50;;;;;;5094474;28;20733;-51
2022/08/12 06:43:50;;;;;;;3.67;2.72;;;26.30;86.60;;;;;;5109248;28;20256;-51
2022/08/12 06:46:37;;;;;;;4.80;2.70;;;26.70;86.90;;;;;;5109349;28;20217;-51
2022/08/12 06:49:05;;;;;;;3.10;2.83;;;26.90;83.20;;;;;;5105151;28;20196;-51
2022/08/12 06:51:34;;;;;;;7.05;3.08;;;27.30;82.40;;;;;;5109081;28;20692;-51
2022/08/12 06:54:03;;;;;;;4.95;2.85;;;27.40;81.30;;;;;;5109606;28;20253;-51
2022/08/12 06:56:31;;;;;;;4.38;3.08;;;27.80;81.00;;;;;;5105029;28;20207;-51
2022/08/12 06:59:20;;;;;;;5.22;3.20;;;28.10;79.20;;;;;;5113274;28;20210;-51
2022/08/12 07:01:48;;;;;;;5.10;2.70;;;28.30;81.60;;;;;;5111698;28;20231;-51
2022/08/12 07:04:18;;;;;;;5.30;2.95;;;28.50;79.40;;;;;;5112329;28;20212;-51
2022/08/12 07:07:07;;;;;;;4.05;2.60;;;28.50;80.70;;;;;;5112661;28;20912;-51
2022/08/12 07:09:37;;;;;;;5.05;2.80;;;28.80;78.10;;;;;;5110081;28;20208;-51
2022/08/12 07:12:26;;;;;;;3.75;2.72;;;29.00;77.10;;;;;;5110256;28;20238;-52
2022/08/12 07:14:56;;;;;;;5.10;2.80;;;29.10;79.10;;;;;;5112932;28;20676;-51
2022/08/12 07:17:24;;;;;;;5.65;3.20;;;29.30;79.10;;;;;;5111928;28;20784;-52
2022/08/12 07:19:53;;;;;;;3.33;2.72;;;29.40;78.90;;;;;;5105652;28;20637;-51
2022/08/12 07:22:24;;;;;;;4.15;2.80;;;29.60;81.10;;;;;;5112654;28;20207;-52
2022/08/12 07:27:39;;;;;;;4.50;2.90;;;29.80;75.20;;;;;;5110288;28;20211;-52
2022/08/12 07:30:09;;;;;;;8.60;3.08;;;29.80;76.70;;;;;;5108190;28;20807;-51
2022/08/12 07:32:37;;;;;;;7.28;2.78;;;29.90;75.10;;;;;;5100440;28;20211;-52
2022/08/12 07:35:06;;;;;;;4.63;3.80;;;30.00;73.40;;;;;;5076760;28;20236;-51
2022/08/12 07:37:40;;;;;;;3.78;2.42;;;30.10;73.00;;;;;;5082275;28;20204;-51
2022/08/12 07:40:11;;;;;;;4.80;2.30;;;30.30;70.80;;;;;;5090433;28;20220;-51
2022/08/12 07:42:42;;;;;;;3.72;2.83;;;30.40;67.20;;;;;;5091857;28;20215;-51
2022/08/12 07:45:11;;;;;;;4.40;2.40;;;30.30;68.00;;;;;;5076960;28;20216;-51
2022/08/12 07:47:41;;;;;;;3.10;2.45;;;30.20;70.30;;;;;;5090951;28;20261;-52
2022/08/12 07:50:11;;;;;;;2.60;2.30;;;30.30;66.10;;;;;;5091653;28;20595;-51
2022/08/12 07:52:44;;;;;;;5.57;2.22;;;30.50;64.70;;;;;;5090935;28;20220;-52
2022/08/12 07:55:15;;;;;;;2.40;2.08;;;30.30;63.20;;;;;;5091056;28;20216;-51
2022/08/12 07:57:56;;;;;;;4.03;2.40;;;30.40;63.60;;;;;;5090878;28;20204;-51
2022/08/12 08:00:25;;;;;;;3.78;2.20;;;30.30;63.10;;;;;;5091177;28;20266;-51
2022/08/12 08:02:54;;;;;;;4.78;2.45;;;30.10;60.80;;;;;;5091002;28;20269;-51
2022/08/12 08:05:25;;;;;;;3.58;2.08;;;30.00;62.40;;;;;;5091008;28;20213;-52
2022/08/12 08:08:00;;;;;;;2.53;2.33;;;29.80;60.50;;;;;;5091386;28;20212;-51
2022/08/12 08:10:32;;;;;;;5.43;2.17;;;29.40;61.20;;;;;;5090516;28;20319;-52
2022/08/12 08:13:03;;;;;;;5.55;2.38;;;29.10;62.10;;;;;;5091155;28;20226;-52
2022/08/12 08:15:33;;;;;;;3.97;2.33;;;28.70;62.40;;;;;;5089915;28;20732;-51
2022/08/12 08:18:22;;;;;;;2.72;2.25;;;28.60;63.60;;;;;;5090357;28;20296;-51
2022/08/12 08:20:55;;;;;;;2.67;2.40;;;28.60;63.60;;;;;;5086859;28;20267;-51
2022/08/12 08:24:13;;;;;;;5.10;2.65;;;28.30;64.30;;;;;;5090755;28;20216;-51
2022/08/12 08:26:25;;;;;;;3.03;2.65;;;28.20;62.90;;;;;;5079768;28;20208;-51
2022/08/12 08:28:54;;;;;;;4.13;2.83;;;28.10;65.30;;;;;;5090794;28;20204;-51
2022/08/12 08:31:22;;;;;;;4.40;2.83;;;28.10;64.90;;;;;;5091321;28;20232;-51
2022/08/12 08:33:50;;;;;;;2.97;2.58;;;28.20;66.10;;;;;;5104113;28;20211;-51
2022/08/12 08:36:39;;;;;;;4.93;2.83;;;28.20;65.50;;;;;;5110869;28;20295;-51
2022/08/12 08:39:10;;;;;;;3.72;2.20;;;28.00;64.90;;;;;;5110986;28;20208;-51
2022/08/12 08:44:45;;;;;;;3.00;2.30;;;28.00;66.90;;;;;;5108488;28;20302;-51
2022/08/12 08:47:16;;;;;;;2.90;2.30;;;27.90;64.40;;;;;;5110471;28;20238;-51
2022/08/12 08:49:44;;;;;;;3.42;2.50;;;27.90;65.50;;;;;;5110805;28;20212;-51
2022/08/12 08:52:12;;;;;;;3.58;2.40;;;27.80;62.10;;;;;;5110859;28;20699;-51
2022/08/12 08:55:00;;;;;;;3.63;2.55;;;27.90;65.60;;;;;;5102947;28;20295;-51
2022/08/12 08:57:30;;;;;;;3.70;2.25;;;28.00;65.00;;;;;;5110298;28;20684;-51
2022/08/12 09:00:13;;;;;;;3.63;2.72;;;28.10;64.50;;;;;;5110820;28;20227;-51
2022/08/12 09:02:42;;;;;;;3.58;2.22;;;28.20;66.20;;;;;;5110557;28;20618;-51
2022/08/12 09:05:25;;;;;;;3.75;2.45;;;28.30;62.60;;;;;;5110373;28;20260;-51
2022/08/12 09:07:55;;;;;;;3.75;2.25;;;28.20;63.00;;;;;;5110692;28;20216;-51
2022/08/12 09:10:41;;;;;;;7.68;2.20;;;28.20;64.80;;;;;;5110054;28;20354;-51
2022/08/12 09:13:27;;;;;;;3.47;2.22;;;28.20;63.30;;;;;;5109917;28;20261;-51
2022/08/12 09:16:16;;;;;;;4.85;2.53;;;28.10;62.80;;;;;;5110284;27;20295;-51
2022/08/12 09:18:47;;;;;;;3.85;2.20;;;28.10;63.70;;;;;;5104178;28;20211;-51
2022/08/12 09:21:20;;;;;;;3.75;2.58;;;28.00;63.80;;;;;;5109952;28;20219;-51
2022/08/12 09:23:50;;;;;;;3.53;2.50;;;27.80;63.40;;;;;;5103771;28;20244;-51
2022/08/12 09:26:34;;;;;;;4.55;2.50;;;27.80;63.30;;;;;;5110553;28;20294;-51
2022/08/12 09:29:06;;;;;;;3.47;2.40;;;27.90;64.80;;;;;;5108944;28;20294;-51
2022/08/12 09:31:40;;;;;;;4.13;2.47;;;27.90;64.30;;;;;;5095707;28;20314;-51
2022/08/12 09:34:30;;;;;;;3.40;2.58;;;27.90;62.80;;;;;;5104187;28;20326;-52
2022/08/12 09:37:03;;;;;;;2.53;2.33;;;27.80;62.50;;;;;;5110403;28;20211;-51
2022/08/12 09:39:47;;;;;;;3.80;2.40;;;27.80;63.30;;;;;;5109780;28;20623;-52
2022/08/12 09:45:45;;;;;;;5.68;2.80;;;27.70;62.90;;;;;;5109723;28;20318;-51
2022/08/12 09:48:34;;;;;;;5.13;2.67;;;27.70;63.60;;;;;;5109839;28;20207;-50
2022/08/12 09:51:07;;;;;;;5.78;2.40;;;27.60;61.10;;;;;;5099005;28;20319;-50
2022/08/12 09:53:49;;;;;;;5.10;2.22;;;27.60;63.00;;;;;;5085680;28;20251;-51
2022/08/12 09:56:39;;;;;;;6.47;2.78;;;27.60;62.10;;;;;;5083867;28;20208;-50
2022/08/12 09:59:27;;;;;;;4.47;2.47;;;27.60;63.40;;;;;;5078351;28;20291;-51
2022/08/12 10:02:16;;;;;;;3.63;2.58;;;27.70;62.70;;;;;;5077860;28;21037;-51
2022/08/12 10:05:08;;;;;;;7.50;2.25;;;27.70;64.20;;;;;;5088316;28;20929;-51
2022/08/12 10:07:44;;;;;;;2.85;2.40;;;27.90;63.00;;;;;;5088418;28;20216;-51
2022/08/12 10:10:13;;;;;;;5.70;2.60;;;27.90;62.90;;;;;;5082862;28;20728;-51
2022/08/12 10:16:06;;;;;;;4.00;2.05;;;27.90;60.90;;;;;;5090178;28;20292;-50
2022/08/12 10:18:48;;;;;;;3.72;2.10;;;27.70;60.30;;;;;;5089440;28;20295;-51
2022/08/12 10:21:21;;;;;;;3.45;2.65;;;27.60;60.50;;;;;;5081582;28;20230;-51
2022/08/12 10:23:52;;;;;;;3.28;2.42;;;27.60;61.40;;;;;;5087450;28;20204;-51
2022/08/12 10:32:22;;;;;;;3.72;2.60;;;27.50;62.30;;;;;;5101199;28;20318;-50
2022/08/12 10:35:14;;;;;;;4.50;2.28;;;27.60;62.90;;;;;;5110459;28;20199;-51
2022/08/12 10:37:44;;;;;;;5.95;3.20;;;27.80;62.60;;;;;;5113510;28;20235;-51
2022/08/12 10:40:33;;;;;;;5.90;2.47;;;27.90;61.20;;;;;;5101864;28;21103;-51
2022/08/12 10:45:54;;;;;;;5.93;2.42;;;28.00;62.70;;;;;;5092635;28;20738;-50
2022/08/12 10:48:27;;;;;;;3.45;2.60;;;28.00;60.90;;;;;;5092374;28;20200;-51
2022/08/12 10:51:04;;;;;;;6.50;2.50;;;28.00;60.50;;;;;;5092526;28;20784;-51
2022/08/12 10:53:53;;;;;;;2.47;2.28;;;27.90;60.10;;;;;;5091969;28;20291;-51
2022/08/12 10:56:29;;;;;;;3.38;2.38;;;27.90;61.40;;;;;;5092475;28;20203;-51
2022/08/12 10:59:02;;;;;;;4.00;2.45;;;27.90;59.80;;;;;;5091605;28;20253;-51
2022/08/12 11:01:32;;;;;;;3.47;2.15;;;27.90;59.70;;;;;;5092271;28;20274;-51
2022/08/12 11:04:20;;;;;;;3.60;2.50;;;27.90;59.60;;;;;;5091780;28;20212;-50
2022/08/12 11:07:09;;;;;;;6.10;2.47;;;27.90;59.50;;;;;;5092504;28;20292;-50
2022/08/12 11:09:58;;;;;;;4.78;2.30;;;27.70;58.80;;;;;;5091399;28;20739;-51
2022/08/12 11:12:30;;;;;;;3.42;2.10;;;27.70;58.90;;;;;;5092034;28;20236;-51
2022/08/12 11:15:22;;;;;;;2.40;2.20;;;27.70;59.20;;;;;;5091746;28;20757;-51
2022/08/12 11:18:10;;;;;;;3.05;2.45;;;27.70;58.90;;;;;;5092097;28;20299;-51
2022/08/12 11:20:46;;;;;;;3.97;2.83;;;27.80;59.30;;;;;;5078531;28;20255;-51
2022/08/12 11:23:16;;;;;;;4.50;2.28;;;27.70;59.20;;;;;;5091350;28;20287;-51
2022/08/12 11:26:05;;;;;;;2.92;2.28;;;27.70;60.00;;;;;;5096014;28;20207;-50
2022/08/12 11:28:35;;;;;;;3.67;2.22;;;27.80;59.90;;;;;;5095520;28;20204;-51
2022/08/12 11:31:09;;;;;;;5.18;2.40;;;27.70;59.80;;;;;;5090466;28;20258;-50
2022/08/12 11:33:42;;;;;;;5.57;2.58;;;27.70;60.80;;;;;;5106205;28;20234;-51
2022/08/12 11:36:30;;;;;;;3.80;2.20;;;27.60;60.60;;;;;;5112788;28;20287;-51
2022/08/12 11:39:00;;;;;;;4.88;2.70;;;27.80;62.70;;;;;;5096227;28;20200;-50
2022/08/12 11:41:33;;;;;;;5.38;2.47;;;27.90;63.10;;;;;;5074992;28;20269;-50
2022/08/12 11:44:01;;;;;;;4.00;2.38;;;27.90;59.60;;;;;;5091109;28;20202;-50
2022/08/12 11:46:50;;;;;;;3.90;2.20;;;27.80;59.20;;;;;;5083419;28;20678;-50
2022/08/12 11:49:22;;;;;;;3.20;2.10;;;27.80;59.30;;;;;;5082003;28;20208;-51
2022/08/12 11:51:58;;;;;;;3.38;2.15;;;27.70;59.30;;;;;;5091805;28;20220;-51
2022/08/12 11:54:28;;;;;;;3.25;2.50;;;27.80;59.70;;;;;;5090975;28;20215;-50
2022/08/12 11:56:57;;;;;;;2.85;1.95;;;27.90;59.20;;;;;;5091490;28;20669;-51
2022/08/12 11:59:29;;;;;;;5.80;2.10;;;27.80;58.70;;;;;;5091480;28;20293;-51
2022/08/12 12:02:17;;;;;;;2.83;1.80;;;27.70;58.40;;;;;;5091153;28;20313;-51
2022/08/12 12:04:49;;;;;;;4.90;2.30;;;27.80;59.10;;;;;;5090510;28;20253;-51
2022/08/12 12:07:21;;;;;;;3.67;2.22;;;27.90;58.50;;;;;;5090033;28;20317;-51
2022/08/12 12:09:51;;;;;;;3.78;2.20;;;27.90;59.00;;;;;;5090735;28;20208;-51
2022/08/12 12:12:22;;;;;;;5.57;2.13;;;27.90;59.10;;;;;;5087694;28;20293;-57
2022/08/12 12:14:51;;;;;;;4.40;1.85;;;27.80;58.80;;;;;;5090280;28;20205;-51
2022/08/12 12:17:22;;;;;;;3.38;2.10;;;27.90;59.30;;;;;;5090799;28;20219;-50
2022/08/12 12:19:50;;;;;;;3.90;1.80;;;27.90;59.00;;;;;;5090605;28;20669;-51
2022/08/12 12:22:18;;;;;;;5.22;2.15;;;27.90;58.50;;;;;;5084850;28;20619;-51
2022/08/12 12:24:55;;;;;;;2.45;1.70;;;28.00;58.20;;;;;;5094776;28;20207;-51
2022/08/12 12:27:23;;;;;;;3.95;1.67;;;28.00;57.60;;;;;;5097481;28;20212;-51
2022/08/12 12:30:11;;;;;;;2.15;1.95;;;28.00;57.20;;;;;;5090832;28;20655;-51
2022/08/12 12:32:56;;;;;;;3.53;1.80;;;28.00;58.50;;;;;;5098156;28;20684;-51
2022/08/12 12:35:24;;;;;;;3.67;1.77;;;28.00;59.00;;;;;;5090410;28;20239;-51
2022/08/12 12:38:14;;;;;;;3.28;1.92;;;28.10;58.80;;;;;;5077504;28;20299;-51
2022/08/12 12:40:46;;;;;;;3.08;1.80;;;28.10;57.40;;;;;;5078300;28;20231;-51
2022/08/12 12:43:18;;;;;;;2.55;1.60;;;28.10;57.60;;;;;;5089925;28;20196;-51
2022/08/12 12:46:06;;;;;;;6.70;1.77;;;28.10;56.80;;;;;;5090101;28;20235;-51
2022/08/12 12:48:36;;;;;;;3.80;2.00;;;28.20;58.30;;;;;;5089322;28;20204;-51
2022/08/12 12:51:17;;;;;;;2.45;1.70;;;28.20;57.60;;;;;;5086039;28;20224;-51
2022/08/12 12:54:05;;;;;;;8.00;1.88;;;28.20;58.70;;;;;;5079496;28;20772;-51
2022/08/12 12:56:40;;;;;;;5.53;2.30;;;28.20;57.50;;;;;;5088173;28;20677;-51
2022/08/12 12:59:09;;;;;;;4.43;1.98;;;28.20;58.90;;;;;;5089842;28;20239;-51
2022/08/12 13:02:04;;;;;;;3.80;1.90;;;28.10;58.60;;;;;;5084367;28;20312;-51
2022/08/12 13:04:35;;;;;;;5.13;1.80;;;28.10;58.00;;;;;;5089821;28;20208;-51
2022/08/12 13:07:04;;;;;;;4.32;1.73;;;28.10;58.30;;;;;;5087211;28;20216;-51
2022/08/12 13:09:34;;;;;;;4.18;1.83;;;28.10;58.10;;;;;;5089745;28;20278;-51
2022/08/12 13:12:07;;;;;;;3.08;1.85;;;28.10;58.60;;;;;;5090310;28;20220;-51
2022/08/12 13:14:37;;;;;;;3.38;1.80;;;28.00;58.40;;;;;;5089332;28;20228;-51
2022/08/12 13:17:08;;;;;;;5.75;2.05;;;28.00;58.60;;;;;;5090038;28;20657;-51
2022/08/12 13:19:37;;;;;;;3.00;1.58;;;28.00;58.70;;;;;;5088736;28;20212;-50
2022/08/12 13:22:17;;;;;;;1.85;1.67;;;28.00;58.10;;;;;;5090043;28;20208;-51
2022/08/12 13:24:47;;;;;;;3.90;1.50;;;28.00;57.90;;;;;;5089437;28;20203;-50
2022/08/12 13:27:28;;;;;;;3.17;1.70;;;28.00;58.00;;;;;;5089137;28;20249;-51
2022/08/12 13:30:06;;;;;;;2.30;1.67;;;28.00;58.40;;;;;;5092845;28;20261;-51
2022/08/12 13:32:40;;;;;;;3.15;1.85;;;28.00;58.30;;;;;;5106979;28;20203;-51
2022/08/12 13:35:09;;;;;;;4.07;1.63;;;28.10;57.50;;;;;;5107513;28;20223;-51
2022/08/12 13:37:58;;;;;;;3.85;1.88;;;28.20;57.90;;;;;;5100788;28;20226;-51
2022/08/12 13:40:32;;;;;;;10.43;1.80;;;28.20;56.60;;;;;;5108760;28;20238;-51
2022/08/12 13:43:05;;;;;;;7.07;1.77;;;28.10;57.20;;;;;;5108995;28;20261;-50
2022/08/12 13:45:34;;;;;;;3.90;1.83;;;28.00;57.70;;;;;;5109898;28;20203;-51
2022/08/12 13:48:05;;;;;;;3.67;1.60;;;28.10;57.00;;;;;;5109668;28;20219;-50
2022/08/12 13:50:36;;;;;;;4.38;1.75;;;28.00;57.50;;;;;;5109392;28;20691;-51
2022/08/12 13:53:08;;;;;;;3.80;1.60;;;28.00;57.00;;;;;;5103322;28;20199;-51
2022/08/12 13:55:56;;;;;;;6.88;1.80;;;28.00;56.70;;;;;;5100971;28;20238;-51
2022/08/12 13:58:30;;;;;;;4.15;1.52;;;27.90;57.20;;;;;;5109620;28;20207;-50
2022/08/12 14:01:04;;;;;;;3.70;1.52;;;27.90;56.20;;;;;;5109715;28;20231;-50
2022/08/12 14:03:36;;;;;;;1.65;1.52;;;27.90;56.60;;;;;;5108987;28;20257;-50
2022/08/12 14:06:19;;;;;;;4.28;1.60;;;27.90;55.80;;;;;;5085199;28;20207;-51
2022/08/12 14:08:48;;;;;;;2.83;1.35;;;27.90;57.00;;;;;;5109089;28;20211;-51
2022/08/12 14:11:18;;;;;;;5.10;1.67;;;27.90;57.70;;;;;;5109442;28;20269;-51
2022/08/12 14:13:58;;;;;;;3.60;1.80;;;27.90;56.70;;;;;;5108489;28;20563;-51
2022/08/12 14:16:34;;;;;;;4.50;1.75;;;27.90;57.20;;;;;;5109289;28;20781;-50
2022/08/12 14:19:16;;;;;;;3.80;1.70;;;27.90;57.40;;;;;;5101812;28;20677;-51
2022/08/12 14:21:52;;;;;;;5.20;1.48;;;28.00;58.00;;;;;;5108982;28;20731;-51
2022/08/12 14:24:33;;;;;;;4.50;1.85;;;28.10;57.90;;;;;;5108957;28;20750;-51
2022/08/12 14:27:03;;;;;;;2.08;1.90;;;28.10;57.60;;;;;;5108878;28;20298;-51
2022/08/12 14:29:41;;;;;;;4.57;1.98;;;28.20;57.50;;;;;;5107775;28;20205;-50
2022/08/12 14:32:33;;;;;;;5.63;1.92;;;28.10;58.10;;;;;;5086851;28;20303;-51
2022/08/12 14:35:05;;;;;;;3.30;1.67;;;28.00;58.10;;;;;;5105737;28;20234;-51
2022/08/12 14:37:37;;;;;;;3.53;1.25;;;28.10;58.10;;;;;;5102622;28;20208;-51
2022/08/12 14:40:27;;;;;;;3.05;1.55;;;28.00;58.70;;;;;;5107688;28;20310;-51
2022/08/12 14:42:57;;;;;;;2.65;1.77;;;27.90;58.30;;;;;;5100004;28;20200;-51
2022/08/12 14:45:27;;;;;;;2.33;1.33;;;28.00;58.40;;;;;;5079090;28;20232;-51
2022/08/12 14:48:17;;;;;;;4.65;1.60;;;27.90;58.10;;;;;;5085990;28;20212;-51
2022/08/12 14:50:46;;;;;;;3.90;2.17;;;28.00;57.80;;;;;;5088617;28;20668;-52
2022/08/12 14:53:34;;;;;;;3.17;1.50;;;28.00;58.70;;;;;;5087505;28;20208;-52
2022/08/12 14:56:24;;;;;;;1.88;1.45;;;28.10;58.50;;;;;;5088216;28;20236;-51
2022/08/12 15:02:20;;;;;;;3.60;1.60;;;28.00;58.20;;;;;;5084932;28;20631;-51
2022/08/12 15:04:57;;;;;;;2.33;1.33;;;27.90;57.80;;;;;;5088191;28;20254;-51
2022/08/12 15:07:27;;;;;;;3.53;1.30;;;28.00;57.60;;;;;;5085411;28;20291;-51
2022/08/12 15:10:16;;;;;;;3.00;1.42;;;27.90;58.40;;;;;;5097184;28;20972;-52
2022/08/12 15:13:05;;;;;;;2.70;1.30;;;27.80;57.80;;;;;;5082173;28;20210;-51
2022/08/12 15:15:37;;;;;;;2.55;1.27;;;27.80;58.30;;;;;;5088974;28;20227;-51
2022/08/12 15:18:16;;;;;;;2.08;1.13;;;27.80;57.40;;;;;;5091764;28;20861;-51
2022/08/12 15:20:51;;;;;;;3.13;1.23;;;27.80;57.10;;;;;;5091523;28;20234;-51